Time;durP1;ratioP1;P1;durP2;ratioP2;P2;SDS_P1;SDS_P2;PMS_P1;PMS_P2;Temp;Humidity;BMP_temperature;BMP_pressure;BME280_temperature;BME280_humidity;BME280_pressure;Samples;Min_cycle;Max_cycle;Signal;HPM_P1;HPM_P2
2022/06/01 00:19:50;;;;;;;0.90;0.90;;;19.10;66.40;;;;;;5090840;28;20631;-76
2022/06/01 00:22:17;;;;;;;0.93;0.90;;;19.10;66.40;;;;;;5077499;28;20179;-77
2022/06/01 00:24:45;;;;;;;1.73;1.13;;;19.10;66.60;;;;;;5076629;28;20173;-77
2022/06/01 00:27:12;;;;;;;1.07;0.97;;;19.10;66.50;;;;;;5078321;28;20181;-77
2022/06/01 00:29:38;;;;;;;1.53;0.97;;;19.00;66.40;;;;;;5068197;28;20284;-77
2022/06/01 00:32:06;;;;;;;1.00;0.90;;;19.00;66.60;;;;;;5078694;28;20439;-77
2022/06/01 00:34:32;;;;;;;1.10;1.00;;;19.00;66.70;;;;;;5062771;28;20566;-77
2022/06/01 00:36:59;;;;;;;1.00;1.00;;;19.00;66.70;;;;;;5079384;28;20187;-77
2022/06/01 00:39:25;;;;;;;0.90;0.90;;;19.00;66.70;;;;;;5080977;28;20181;-77
2022/06/01 00:41:51;;;;;;;1.83;0.90;;;19.00;66.70;;;;;;5070840;28;20175;-77
2022/06/01 00:44:16;;;;;;;1.07;1.00;;;19.00;66.60;;;;;;5081366;28;20172;-76
2022/06/01 00:46:42;;;;;;;0.90;0.90;;;19.00;66.80;;;;;;5071569;28;20414;-77
2022/06/01 00:49:18;;;;;;;1.00;0.90;;;19.00;66.80;;;;;;5056441;28;20275;-76
2022/06/01 00:51:46;;;;;;;1.43;1.27;;;19.00;66.90;;;;;;5060612;28;20187;-77
2022/06/01 00:54:17;;;;;;;0.90;0.90;;;19.00;66.80;;;;;;5075691;28;20601;-78
2022/06/01 00:57:13;;;;;;;1.37;1.00;;;19.00;67.00;;;;;;5063261;28;20350;-77
2022/06/01 00:59:44;;;;;;;1.27;1.00;;;18.90;67.00;;;;;;5051106;28;20231;-78
2022/06/01 01:02:10;;;;;;;0.90;0.90;;;18.90;67.00;;;;;;5067612;28;20206;-78
2022/06/01 01:04:39;;;;;;;1.80;0.93;;;18.90;67.10;;;;;;5073890;28;20281;-78
2022/06/01 01:07:12;;;;;;;0.80;0.80;;;18.90;67.00;;;;;;5077877;28;20191;-77
2022/06/01 01:09:38;;;;;;;0.73;0.73;;;18.90;67.10;;;;;;5071620;28;20284;-76
2022/06/01 01:12:08;;;;;;;0.73;0.73;;;18.90;67.20;;;;;;5059784;28;20180;-77
2022/06/01 01:14:38;;;;;;;1.27;1.03;;;18.90;67.20;;;;;;5077273;28;20304;-76
2022/06/01 01:17:06;;;;;;;0.80;0.80;;;18.90;67.30;;;;;;5090496;28;20172;-77
2022/06/01 01:19:41;;;;;;;0.93;0.90;;;18.90;67.30;;;;;;5080031;28;20710;-77
2022/06/01 01:25:32;;;;;;;0.80;0.80;;;18.90;67.20;;;;;;5097411;28;20478;-77
2022/06/01 01:28:03;;;;;;;0.90;0.90;;;18.80;67.30;;;;;;5082003;28;20312;-77
2022/06/01 01:30:38;;;;;;;0.80;0.80;;;18.80;67.40;;;;;;5067531;28;20220;-76
2022/06/01 01:33:44;;;;;;;1.20;1.10;;;18.80;67.40;;;;;;5079019;28;20281;-76
2022/06/01 01:36:22;;;;;;;0.80;0.80;;;18.80;67.50;;;;;;5078886;28;20217;-76
2022/06/01 01:39:20;;;;;;;0.80;0.80;;;18.80;67.50;;;;;;5069641;28;20175;-76
2022/06/01 01:41:55;;;;;;;1.10;1.00;;;18.80;67.50;;;;;;5069850;28;20850;-77
2022/06/01 01:44:29;;;;;;;1.27;0.90;;;18.80;67.60;;;;;;5078997;28;20231;-77
2022/06/01 01:46:58;;;;;;;0.90;0.87;;;18.80;67.60;;;;;;5063061;28;20207;-76
2022/06/01 01:49:30;;;;;;;0.83;0.83;;;18.80;67.50;;;;;;5075391;28;20170;-76
2022/06/01 01:52:08;;;;;;;0.87;0.87;;;18.80;67.60;;;;;;5090924;28;20459;-76
2022/06/01 01:54:57;;;;;;;1.93;1.10;;;18.70;67.60;;;;;;5075251;28;20589;-77
2022/06/01 01:57:44;;;;;;;0.80;0.80;;;18.80;67.70;;;;;;5073196;28;20195;-77
2022/06/01 02:00:25;;;;;;;0.87;0.87;;;18.70;67.70;;;;;;5068305;28;20231;-76
2022/06/01 02:02:53;;;;;;;0.80;0.80;;;18.70;67.70;;;;;;5070450;28;20176;-77
2022/06/01 02:08:15;;;;;;;1.57;0.90;;;18.70;67.90;;;;;;5095416;28;20252;-76
2022/06/01 02:13:40;;;;;;;1.33;0.80;;;18.70;67.90;;;;;;5080485;28;20544;-76
2022/06/01 02:16:07;;;;;;;1.40;0.90;;;18.70;68.00;;;;;;5061528;28;20538;-77
2022/06/01 02:18:43;;;;;;;0.90;0.87;;;18.70;68.10;;;;;;5076541;28;20228;-77
2022/06/01 02:21:30;;;;;;;2.30;1.00;;;18.70;68.20;;;;;;5069785;28;20206;-76
2022/06/01 02:24:01;;;;;;;0.87;0.87;;;18.60;68.10;;;;;;5061142;28;20715;-76
2022/06/01 02:26:28;;;;;;;1.07;1.00;;;18.60;68.20;;;;;;5055876;28;20291;-77
2022/06/01 02:29:16;;;;;;;0.83;0.83;;;18.60;68.20;;;;;;5069914;28;20564;-77
2022/06/01 02:31:43;;;;;;;1.37;0.80;;;18.60;68.20;;;;;;5065325;28;20181;-77
2022/06/01 02:34:11;;;;;;;0.70;0.70;;;18.60;68.30;;;;;;5054549;28;20295;-77
2022/06/01 02:36:42;;;;;;;1.23;0.93;;;18.60;68.40;;;;;;5062066;28;20178;-78
2022/06/01 02:39:12;;;;;;;0.80;0.80;;;18.60;68.40;;;;;;5064240;28;20876;-78
2022/06/01 02:44:23;;;;;;;0.80;0.80;;;18.60;68.40;;;;;;5075340;28;20503;-79
2022/06/01 02:46:58;;;;;;;1.10;0.90;;;18.60;68.50;;;;;;5068124;28;20177;-79
2022/06/01 02:49:24;;;;;;;0.80;0.70;;;18.50;68.50;;;;;;5079595;28;20217;-79
2022/06/01 02:51:51;;;;;;;0.90;0.90;;;18.50;68.50;;;;;;5055971;28;20181;-78
2022/06/01 02:54:17;;;;;;;0.93;0.80;;;18.50;68.60;;;;;;5075402;28;20685;-78
2022/06/01 02:56:43;;;;;;;0.90;0.90;;;18.50;68.60;;;;;;5082751;28;20169;-78
2022/06/01 02:59:09;;;;;;;0.93;0.90;;;18.50;68.70;;;;;;5078246;28;20180;-78
2022/06/01 03:01:36;;;;;;;1.10;1.00;;;18.50;68.80;;;;;;5056504;28;20495;-78
2022/06/01 03:04:03;;;;;;;1.77;0.90;;;18.50;69.30;;;;;;5077789;28;20169;-78
2022/06/01 03:06:28;;;;;;;1.00;0.90;;;18.40;68.70;;;;;;5077768;28;20595;-78
2022/06/01 03:08:55;;;;;;;0.90;0.90;;;18.50;68.70;;;;;;5078484;28;20176;-77
2022/06/01 03:11:21;;;;;;;1.30;0.93;;;18.50;68.80;;;;;;5061041;28;20181;-77
2022/06/01 03:13:47;;;;;;;0.80;0.80;;;18.40;68.70;;;;;;5060587;28;20329;-77
2022/06/01 03:16:12;;;;;;;1.20;1.00;;;18.40;68.70;;;;;;5066387;28;20395;-77
2022/06/01 03:18:38;;;;;;;0.87;0.80;;;18.40;68.70;;;;;;5059262;28;20188;-77
2022/06/01 03:21:04;;;;;;;0.70;0.70;;;18.40;68.70;;;;;;5077328;28;20211;-77
2022/06/01 03:23:29;;;;;;;0.87;0.87;;;18.40;68.70;;;;;;5076654;28;20164;-77
2022/06/01 03:25:55;;;;;;;0.80;0.80;;;18.40;68.70;;;;;;5067515;28;20478;-77
2022/06/01 03:28:21;;;;;;;0.77;0.77;;;18.40;68.70;;;;;;5069664;28;20177;-76
2022/06/01 03:30:48;;;;;;;1.07;0.97;;;18.40;68.70;;;;;;5075966;28;20177;-77
2022/06/01 03:33:14;;;;;;;0.80;0.80;;;18.40;68.70;;;;;;5076746;28;20179;-77
2022/06/01 03:35:40;;;;;;;0.93;0.80;;;18.40;68.70;;;;;;5074707;28;20218;-77
2022/06/01 03:38:07;;;;;;;1.20;0.80;;;18.30;68.70;;;;;;5095055;28;20167;-77
2022/06/01 03:40:35;;;;;;;0.80;0.80;;;18.30;68.60;;;;;;5049559;28;20159;-77
2022/06/01 03:43:01;;;;;;;1.10;1.00;;;18.30;68.60;;;;;;5073680;28;20178;-77
2022/06/01 03:48:14;;;;;;;0.90;0.90;;;18.30;68.50;;;;;;5094447;28;20213;-77
2022/06/01 03:50:41;;;;;;;0.80;0.80;;;18.30;68.50;;;;;;5077590;28;20177;-77
2022/06/01 03:53:07;;;;;;;0.80;0.80;;;18.30;68.50;;;;;;5076899;28;20200;-77
2022/06/01 03:55:34;;;;;;;1.17;1.00;;;18.30;68.50;;;;;;5075339;28;20522;-79
2022/06/01 03:58:00;;;;;;;1.00;0.90;;;18.30;68.60;;;;;;5061003;28;20255;-78
2022/06/01 04:00:26;;;;;;;1.07;0.97;;;18.30;68.50;;;;;;5070606;28;20267;-78
2022/06/01 04:02:53;;;;;;;1.27;0.80;;;18.30;68.50;;;;;;5065824;28;20195;-78
2022/06/01 04:05:21;;;;;;;0.80;0.80;;;18.30;68.50;;;;;;5059645;28;20567;-79
2022/06/01 04:07:46;;;;;;;0.80;0.80;;;18.30;68.50;;;;;;5077289;28;20172;-79
2022/06/01 04:10:12;;;;;;;1.83;1.00;;;18.30;68.50;;;;;;5073591;28;20454;-80
2022/06/01 04:12:39;;;;;;;1.27;0.90;;;18.30;68.50;;;;;;5070994;28;20171;-78
2022/06/01 04:15:06;;;;;;;1.03;0.90;;;18.30;68.50;;;;;;5070759;28;20611;-77
2022/06/01 04:17:32;;;;;;;2.43;0.90;;;18.30;68.50;;;;;;5075846;28;20169;-79
2022/06/01 04:19:58;;;;;;;0.80;0.80;;;18.30;68.40;;;;;;5080223;28;20211;-79
2022/06/01 04:22:23;;;;;;;0.80;0.80;;;18.30;68.50;;;;;;5076703;28;20179;-78
2022/06/01 04:24:49;;;;;;;1.00;0.80;;;18.30;68.40;;;;;;5073659;28;20187;-78
2022/06/01 04:27:16;;;;;;;2.03;0.90;;;18.20;68.30;;;;;;5074548;28;20188;-78
2022/06/01 04:29:41;;;;;;;2.37;1.07;;;18.20;68.20;;;;;;5074192;28;20237;-78
2022/06/01 04:32:21;;;;;;;1.50;0.90;;;18.20;68.30;;;;;;5067186;28;20820;-79
2022/06/01 04:34:46;;;;;;;0.83;0.80;;;18.20;68.30;;;;;;5063557;28;20266;-78
2022/06/01 04:37:12;;;;;;;1.03;0.93;;;18.30;68.40;;;;;;5075620;28;20599;-77
2022/06/01 04:39:38;;;;;;;1.00;0.90;;;18.20;68.20;;;;;;5075236;28;20172;-77
2022/06/01 04:48:30;;;;;;;1.87;0.90;;;18.30;68.40;;;;;;5016075;28;20413;-77
2022/06/01 04:50:56;;;;;;;1.00;0.90;;;18.30;68.40;;;;;;5082831;28;20185;-78
2022/06/01 04:53:22;;;;;;;1.10;1.00;;;18.30;68.60;;;;;;5074230;28;20172;-78
2022/06/01 04:55:48;;;;;;;0.90;0.90;;;18.30;69.60;;;;;;5073866;28;20618;-77
2022/06/01 04:58:30;;;;;;;2.47;1.10;;;18.40;70.70;;;;;;5067942;28;20204;-77
2022/06/01 05:00:56;;;;;;;2.60;1.10;;;18.40;73.30;;;;;;5048577;23;20209;-78
2022/06/01 05:03:22;;;;;;;4.53;1.03;;;18.40;74.20;;;;;;5033112;28;20231;-78
2022/06/01 05:05:47;;;;;;;1.37;1.00;;;18.40;74.90;;;;;;5024853;28;20391;-77
2022/06/01 05:08:14;;;;;;;1.50;1.10;;;18.50;75.20;;;;;;5028269;28;20455;-78
2022/06/01 05:10:40;;;;;;;1.30;1.20;;;18.50;75.80;;;;;;5014411;28;20181;-78
2022/06/01 05:13:07;;;;;;;3.57;1.10;;;18.50;76.00;;;;;;5015215;28;20307;-77
2022/06/01 05:15:33;;;;;;;1.30;0.93;;;18.60;76.50;;;;;;5023353;28;20204;-77
2022/06/01 05:17:59;;;;;;;2.80;1.20;;;18.60;76.90;;;;;;5023873;28;20412;-77
2022/06/01 05:20:25;;;;;;;2.97;1.10;;;18.70;77.40;;;;;;5023966;28;20439;-76
2022/06/01 05:22:51;;;;;;;1.83;1.30;;;18.70;77.70;;;;;;5019393;28;20170;-74
2022/06/01 05:25:16;;;;;;;1.90;1.33;;;18.70;77.60;;;;;;5028617;28;20175;-74
2022/06/01 05:27:42;;;;;;;2.77;1.40;;;18.80;77.00;;;;;;5033509;28;20179;-75
2022/06/01 05:30:09;;;;;;;1.50;1.30;;;18.80;76.00;;;;;;5045205;28;20243;-75
2022/06/01 05:32:34;;;;;;;3.07;1.30;;;18.80;74.80;;;;;;5038698;28;20175;-74
2022/06/01 05:35:00;;;;;;;1.60;1.30;;;18.90;74.30;;;;;;5036577;28;20205;-75
2022/06/01 05:37:26;;;;;;;3.17;1.30;;;18.90;73.90;;;;;;5039403;28;20359;-74
2022/06/01 05:39:52;;;;;;;3.43;1.40;;;19.00;73.60;;;;;;5030964;28;20275;-75
2022/06/01 05:42:18;;;;;;;2.37;1.20;;;19.10;73.10;;;;;;5021038;28;20251;-75
2022/06/01 05:44:44;;;;;;;7.03;1.53;;;19.20;72.40;;;;;;5029435;28;20172;-75
2022/06/01 05:47:10;;;;;;;1.50;1.40;;;19.20;71.50;;;;;;5033039;28;20359;-75
2022/06/01 05:49:36;;;;;;;1.83;1.30;;;19.30;70.70;;;;;;5033209;28;20205;-74
2022/06/01 05:52:02;;;;;;;2.90;1.67;;;19.40;70.00;;;;;;5032524;28;20186;-75
2022/06/01 05:54:27;;;;;;;2.33;1.33;;;19.50;68.90;;;;;;5019926;28;20216;-75
2022/06/01 05:56:53;;;;;;;1.43;1.13;;;19.70;67.40;;;;;;5013756;28;20266;-74
2022/06/01 05:59:19;;;;;;;2.03;1.40;;;19.90;65.20;;;;;;5014435;28;20195;-75
2022/06/01 06:01:45;;;;;;;4.87;1.37;;;20.20;62.60;;;;;;5014889;28;20305;-75
2022/06/01 06:04:10;;;;;;;3.33;1.40;;;20.50;60.50;;;;;;5013647;28;20498;-75
2022/06/01 06:06:37;;;;;;;2.43;1.70;;;20.70;59.20;;;;;;5015379;28;20178;-75
2022/06/01 06:09:09;;;;;;;4.07;1.40;;;20.90;58.60;;;;;;5016552;28;20294;-75
2022/06/01 06:11:38;;;;;;;1.87;1.30;;;21.00;57.90;;;;;;5004745;28;20534;-74
2022/06/01 06:14:04;;;;;;;2.73;1.50;;;21.10;57.40;;;;;;5010874;28;20189;-75
2022/06/01 06:16:37;;;;;;;2.73;1.43;;;21.30;57.10;;;;;;5014450;28;20340;-75
2022/06/01 06:19:04;;;;;;;1.80;1.53;;;21.30;56.60;;;;;;5030027;28;20173;-75
2022/06/01 06:21:30;;;;;;;3.07;1.50;;;21.50;56.40;;;;;;5038066;28;20472;-75
2022/06/01 06:24:01;;;;;;;3.43;1.50;;;21.50;55.90;;;;;;5030257;28;20540;-75
2022/06/01 06:26:27;;;;;;;3.23;1.70;;;21.60;55.60;;;;;;5031838;28;20492;-74
2022/06/01 06:28:56;;;;;;;3.07;1.70;;;21.70;55.30;;;;;;5032831;28;20290;-74
2022/06/01 06:31:21;;;;;;;2.20;1.47;;;21.80;55.10;;;;;;5025995;28;20269;-74
2022/06/01 06:33:48;;;;;;;1.90;1.57;;;21.90;54.90;;;;;;5031715;28;20268;-75
2022/06/01 06:36:14;;;;;;;1.83;1.50;;;22.00;54.80;;;;;;5038028;28;20276;-75
2022/06/01 06:38:41;;;;;;;1.90;1.40;;;22.10;54.50;;;;;;5035632;28;20273;-74
2022/06/01 06:41:07;;;;;;;3.40;1.60;;;22.20;54.10;;;;;;5030580;28;20830;-75
2022/06/01 06:43:35;;;;;;;3.27;1.40;;;22.30;53.70;;;;;;5029551;28;20184;-75
2022/06/01 06:46:08;;;;;;;4.17;1.40;;;22.40;53.30;;;;;;5022637;28;20265;-75
2022/06/01 06:48:34;;;;;;;2.30;1.60;;;22.50;53.10;;;;;;5022219;28;20460;-74
2022/06/01 06:51:01;;;;;;;3.83;1.60;;;22.70;52.90;;;;;;5035654;28;20282;-76
2022/06/01 06:53:28;;;;;;;3.43;1.53;;;22.70;52.60;;;;;;5034168;28;20172;-76
2022/06/01 06:55:54;;;;;;;2.20;1.63;;;22.90;52.40;;;;;;5033487;28;20183;-75
2022/06/01 06:58:22;;;;;;;2.80;1.60;;;22.90;52.10;;;;;;5037841;28;20428;-76
2022/06/01 07:00:48;;;;;;;4.47;1.80;;;23.00;52.10;;;;;;5030661;28;20492;-76
2022/06/01 07:03:15;;;;;;;4.90;1.53;;;23.00;51.90;;;;;;5029602;28;20176;-76
2022/06/01 07:08:26;;;;;;;4.27;1.90;;;23.10;51.80;;;;;;5049478;28;20330;-76
2022/06/01 07:10:53;;;;;;;3.63;1.80;;;23.20;51.70;;;;;;5031278;28;20179;-76
2022/06/01 07:13:27;;;;;;;3.17;1.60;;;23.10;51.70;;;;;;5030934;28;20172;-77
2022/06/01 07:16:26;;;;;;;3.10;1.63;;;23.10;51.80;;;;;;5028947;28;20509;-76
2022/06/01 07:18:53;;;;;;;2.63;1.80;;;23.20;51.70;;;;;;5013044;28;20441;-76
2022/06/01 07:21:21;;;;;;;3.03;1.60;;;23.30;51.50;;;;;;5031443;28;20184;-76
2022/06/01 07:23:47;;;;;;;4.53;1.73;;;23.30;51.50;;;;;;5032312;28;20176;-76
2022/06/01 07:26:19;;;;;;;2.40;1.30;;;23.40;51.30;;;;;;5031335;28;20466;-76
2022/06/01 07:28:45;;;;;;;3.20;1.60;;;23.30;51.40;;;;;;5031897;28;20669;-76
2022/06/01 07:31:13;;;;;;;2.50;1.90;;;23.20;51.70;;;;;;5031900;28;20754;-75
2022/06/01 07:33:39;;;;;;;2.53;1.63;;;23.20;51.80;;;;;;5049627;28;20204;-76
2022/06/01 07:36:08;;;;;;;3.03;1.50;;;23.10;51.80;;;;;;5049139;28;20292;-76
2022/06/01 07:44:17;;;;;;;2.57;1.37;;;22.80;52.60;;;;;;5049127;28;20471;-75
2022/06/01 07:46:43;;;;;;;1.70;1.50;;;22.70;52.80;;;;;;5032066;28;20172;-76
2022/06/01 07:49:09;;;;;;;2.67;1.50;;;22.60;53.00;;;;;;5031509;28;20187;-76
2022/06/01 07:51:37;;;;;;;2.10;1.50;;;22.50;53.20;;;;;;5031262;28;20176;-75
2022/06/01 07:54:03;;;;;;;2.20;1.43;;;22.70;53.00;;;;;;5030757;28;20213;-75
2022/06/01 07:56:30;;;;;;;2.43;1.40;;;22.70;52.90;;;;;;5037732;28;20503;-75
2022/06/01 07:58:56;;;;;;;3.27;1.53;;;22.70;52.90;;;;;;5037705;28;20176;-76
2022/06/01 08:01:25;;;;;;;3.03;1.60;;;22.80;52.80;;;;;;5037880;28;20722;-75
2022/06/01 08:04:03;;;;;;;2.57;1.20;;;22.90;52.60;;;;;;5036297;28;20173;-76
2022/06/01 08:06:30;;;;;;;2.23;1.20;;;23.10;52.30;;;;;;5036720;28;20317;-76
2022/06/01 08:08:55;;;;;;;1.70;1.30;;;23.00;52.30;;;;;;5054700;28;20230;-76
2022/06/01 08:13:06;;;;;;;2.63;1.40;;;22.90;52.40;;;;;;5030909;28;20633;-76
2022/06/01 08:14:09;;;;;;;2.10;1.20;;;22.90;52.50;;;;;;5046580;28;20184;-76
2022/06/01 08:16:35;;;;;;;1.43;1.13;;;23.00;52.30;;;;;;5031142;28;20230;-76
2022/06/01 08:19:01;;;;;;;1.83;1.30;;;22.90;52.20;;;;;;5032792;28;20176;-75
2022/06/01 08:21:27;;;;;;;1.57;1.10;;;22.90;52.30;;;;;;5030944;28;20215;-76
2022/06/01 08:23:53;;;;;;;1.87;1.30;;;22.80;52.50;;;;;;5029582;28;20241;-76
2022/06/01 08:26:18;;;;;;;1.80;1.47;;;22.60;52.60;;;;;;5031231;28;20169;-76
2022/06/01 08:28:44;;;;;;;1.77;1.30;;;22.60;52.80;;;;;;5032095;28;20183;-76
2022/06/01 08:31:10;;;;;;;2.57;1.10;;;22.50;53.00;;;;;;5029290;28;20407;-76
2022/06/01 08:33:35;;;;;;;2.03;1.30;;;22.40;53.10;;;;;;5028899;28;20230;-76
2022/06/01 08:36:01;;;;;;;1.67;1.27;;;22.40;53.20;;;;;;5030262;28;20286;-76
2022/06/01 08:38:27;;;;;;;2.10;1.20;;;22.40;53.20;;;;;;5048946;28;20173;-75
2022/06/01 08:41:07;;;;;;;2.17;1.20;;;22.50;53.00;;;;;;5031062;28;20176;-75
2022/06/01 08:43:41;;;;;;;1.37;1.00;;;22.60;52.90;;;;;;5030320;28;20595;-75
2022/06/01 08:46:08;;;;;;;1.53;1.20;;;22.60;52.90;;;;;;5029770;28;20456;-76
2022/06/01 08:48:40;;;;;;;1.93;1.20;;;22.70;52.70;;;;;;5031432;28;20204;-75
2022/06/01 08:51:07;;;;;;;2.20;1.20;;;22.70;52.60;;;;;;5035430;28;20195;-76
2022/06/01 08:53:33;;;;;;;1.73;1.00;;;22.60;52.70;;;;;;5034244;28;20238;-76
2022/06/01 08:56:10;;;;;;;1.27;1.10;;;22.70;52.60;;;;;;5052822;28;20173;-76
2022/06/01 08:59:04;;;;;;;1.97;1.10;;;22.80;52.60;;;;;;5034981;28;20345;-76
2022/06/01 09:01:48;;;;;;;1.70;1.20;;;22.80;52.50;;;;;;5033641;28;20278;-76
2022/06/01 09:04:24;;;;;;;1.60;1.10;;;22.70;52.50;;;;;;5032741;28;20496;-76
2022/06/01 09:06:55;;;;;;;1.20;1.10;;;22.70;52.70;;;;;;5033011;28;20215;-76
2022/06/01 09:09:40;;;;;;;2.40;1.40;;;22.70;52.60;;;;;;5033544;28;20168;-75
2022/06/01 09:12:07;;;;;;;1.47;1.20;;;22.70;52.60;;;;;;5017121;28;20631;-76
2022/06/01 09:14:37;;;;;;;1.13;1.03;;;22.60;52.60;;;;;;5031933;28;20184;-76
2022/06/01 09:17:05;;;;;;;2.40;1.10;;;22.60;52.70;;;;;;5033600;28;20180;-76
2022/06/01 09:22:39;;;;;;;1.20;1.00;;;22.50;52.70;;;;;;5051398;28;20467;-76
2022/06/01 09:25:07;;;;;;;1.20;1.00;;;22.60;52.70;;;;;;5032844;28;20606;-76
2022/06/01 09:27:47;;;;;;;1.47;0.90;;;22.60;52.70;;;;;;5038806;28;20253;-76
2022/06/01 09:30:34;;;;;;;2.30;1.10;;;22.50;52.70;;;;;;5051712;28;20431;-76
2022/06/01 09:33:10;;;;;;;1.20;0.90;;;22.50;52.80;;;;;;5032620;28;20441;-76
2022/06/01 09:35:41;;;;;;;1.30;1.20;;;22.40;52.70;;;;;;5031597;28;20266;-76
2022/06/01 09:38:18;;;;;;;1.83;1.20;;;22.40;52.80;;;;;;5049645;28;20160;-75
2022/06/01 09:40:44;;;;;;;1.40;1.00;;;22.50;52.80;;;;;;5031829;28;20191;-76
2022/06/01 09:43:22;;;;;;;1.53;1.07;;;22.50;52.70;;;;;;5049940;28;20608;-76
2022/06/01 09:45:53;;;;;;;1.50;1.03;;;22.50;52.60;;;;;;5051308;28;20467;-75
2022/06/01 09:48:29;;;;;;;1.27;1.00;;;22.50;52.60;;;;;;5037443;28;20191;-76
2022/06/01 09:51:16;;;;;;;1.13;1.00;;;22.50;52.50;;;;;;5056229;28;20565;-76
2022/06/01 09:53:47;;;;;;;2.13;1.20;;;22.50;52.40;;;;;;5034552;28;20454;-76
2022/06/01 09:56:40;;;;;;;1.33;1.17;;;22.50;52.50;;;;;;5051188;28;20196;-76
2022/06/01 10:07:21;;;;;;;1.70;1.10;;;22.80;52.10;;;;;;5049817;28;20214;-76
2022/06/01 10:09:56;;;;;;;3.97;1.10;;;22.80;52.00;;;;;;5051329;28;20457;-76
2022/06/01 10:12:42;;;;;;;0.87;0.80;;;22.80;51.90;;;;;;5031966;28;20404;-76
2022/06/01 10:15:32;;;;;;;1.40;1.10;;;22.70;51.90;;;;;;5031604;28;20330;-76
2022/06/01 10:18:21;;;;;;;1.90;1.07;;;22.70;51.90;;;;;;5032971;28;20476;-76
2022/06/01 10:20:50;;;;;;;1.70;1.00;;;22.70;52.00;;;;;;5032366;28;20267;-76
2022/06/01 10:23:27;;;;;;;1.17;0.90;;;22.60;52.00;;;;;;5032977;28;20276;-76
2022/06/01 10:26:00;;;;;;;1.20;1.00;;;22.70;52.00;;;;;;5032766;28;20207;-75
2022/06/01 10:28:39;;;;;;;1.57;1.10;;;22.60;51.90;;;;;;5032505;28;20179;-76
2022/06/01 10:31:14;;;;;;;1.70;0.90;;;22.70;51.90;;;;;;5049536;28;20172;-75
2022/06/01 10:34:06;;;;;;;2.20;1.00;;;22.70;51.80;;;;;;5018350;28;20215;-76
2022/06/01 10:36:57;;;;;;;1.57;1.00;;;22.70;51.80;;;;;;5002672;28;20328;-76
2022/06/01 10:39:25;;;;;;;1.57;1.00;;;22.70;51.80;;;;;;5038417;28;20181;-76
2022/06/01 10:43:16;;;;;;;1.70;1.10;;;22.70;51.70;;;;;;5029069;28;20176;-76
2022/06/01 10:45:15;;;;;;;1.43;1.10;;;22.70;51.70;;;;;;4966987;28;20210;-74
2022/06/01 10:47:54;;;;;;;1.23;1.00;;;22.60;51.70;;;;;;5006093;28;20521;-76
2022/06/01 10:50:27;;;;;;;1.50;1.00;;;22.60;51.60;;;;;;5012235;28;20263;-75
2022/06/01 10:53:06;;;;;;;1.80;1.00;;;22.70;51.60;;;;;;5013463;28;20175;-76
2022/06/01 10:55:39;;;;;;;1.23;1.10;;;22.70;51.60;;;;;;5011566;28;20176;-76
2022/06/01 10:58:06;;;;;;;1.00;0.90;;;22.70;51.50;;;;;;5011102;28;20589;-76
2022/06/01 11:01:05;;;;;;;1.10;1.00;;;22.70;51.40;;;;;;5010881;28;20188;-76
2022/06/01 11:03:48;;;;;;;1.47;1.00;;;22.70;51.40;;;;;;5001850;28;20187;-75
2022/06/01 11:06:26;;;;;;;1.37;1.10;;;22.70;51.30;;;;;;5035268;28;20199;-75
2022/06/01 11:09:05;;;;;;;1.00;1.00;;;22.70;51.20;;;;;;5034106;28;20171;-76
2022/06/01 11:11:51;;;;;;;1.10;1.00;;;22.70;51.20;;;;;;5029493;28;20176;-76
2022/06/01 11:14:47;;;;;;;1.00;0.90;;;22.70;51.10;;;;;;5031041;28;20217;-76
2022/06/01 11:17:28;;;;;;;1.10;0.90;;;22.70;51.10;;;;;;5048130;28;20434;-74
2022/06/01 11:20:12;;;;;;;1.63;1.10;;;22.70;50.90;;;;;;5031263;28;20412;-74
2022/06/01 11:22:44;;;;;;;2.40;0.90;;;22.70;50.90;;;;;;5034361;28;20526;-74
2022/06/01 11:25:29;;;;;;;0.80;0.80;;;22.70;50.90;;;;;;5030379;28;20212;-74
2022/06/01 11:28:09;;;;;;;1.30;0.80;;;22.70;50.90;;;;;;5029690;28;20486;-74
2022/06/01 11:30:54;;;;;;;1.07;0.90;;;22.70;50.80;;;;;;5028870;28;20721;-74
2022/06/01 11:34:00;;;;;;;2.27;1.00;;;22.70;50.80;;;;;;5030038;28;20186;-73
2022/06/01 11:36:52;;;;;;;1.67;0.90;;;22.70;50.90;;;;;;5000230;28;20735;-74
2022/06/01 11:39:27;;;;;;;1.73;1.00;;;22.60;50.90;;;;;;5026873;28;20752;-74
2022/06/01 11:42:23;;;;;;;1.23;0.93;;;22.70;51.00;;;;;;5016525;28;20170;-73
2022/06/01 11:45:14;;;;;;;1.13;1.03;;;22.60;51.00;;;;;;5026839;28;20289;-74
2022/06/01 11:47:53;;;;;;;1.43;0.97;;;22.60;51.10;;;;;;5010565;28;20182;-74
2022/06/01 11:50:39;;;;;;;1.83;1.13;;;22.60;51.20;;;;;;5009569;28;20509;-74
2022/06/01 11:53:10;;;;;;;2.30;1.10;;;22.60;51.20;;;;;;4960934;28;20192;-74
2022/06/01 11:55:46;;;;;;;1.47;1.17;;;22.50;51.30;;;;;;5034444;28;20188;-74
2022/06/01 11:58:39;;;;;;;1.20;1.00;;;22.50;51.30;;;;;;5035349;28;20178;-74
2022/06/01 12:01:31;;;;;;;1.17;1.00;;;22.50;51.40;;;;;;5035486;28;20216;-74
2022/06/01 12:04:21;;;;;;;1.30;1.10;;;22.40;51.40;;;;;;5029108;28;20548;-74
2022/06/01 12:06:56;;;;;;;0.80;0.80;;;22.40;51.50;;;;;;5029583;28;20627;-74
2022/06/01 12:09:31;;;;;;;2.90;0.93;;;22.40;51.50;;;;;;5030870;28;20179;-74
2022/06/01 12:11:57;;;;;;;1.90;1.20;;;22.40;51.60;;;;;;5048019;28;20460;-74
2022/06/01 12:14:37;;;;;;;1.87;1.10;;;22.30;51.60;;;;;;5047283;28;20255;-74
2022/06/01 12:17:18;;;;;;;1.70;1.00;;;22.30;51.60;;;;;;5030620;28;20172;-73
2022/06/01 12:19:47;;;;;;;1.00;0.90;;;22.30;51.70;;;;;;5030064;28;20186;-74
2022/06/01 12:28:45;;;;;;;1.03;0.93;;;22.20;51.90;;;;;;5051907;28;20175;-73
2022/06/01 12:31:24;;;;;;;1.20;0.90;;;22.20;52.00;;;;;;5034654;28;20172;-74
2022/06/01 12:34:04;;;;;;;2.07;1.17;;;22.20;52.00;;;;;;5033948;28;20206;-74
2022/06/01 12:36:42;;;;;;;1.27;1.10;;;22.20;52.00;;;;;;5033964;28;20194;-74
2022/06/01 12:39:13;;;;;;;1.10;1.00;;;22.20;52.00;;;;;;5034704;28;20271;-74
2022/06/01 12:41:43;;;;;;;2.00;1.20;;;22.20;52.10;;;;;;5033927;28;20171;-74
2022/06/01 12:44:11;;;;;;;2.67;1.03;;;22.20;52.10;;;;;;5039823;28;20207;-74
2022/06/01 12:46:40;;;;;;;1.10;1.00;;;22.20;52.10;;;;;;5034615;28;20271;-76
2022/06/01 12:49:33;;;;;;;1.50;1.07;;;22.20;52.10;;;;;;5033431;28;20168;-74
2022/06/01 12:52:06;;;;;;;1.90;1.00;;;22.20;52.20;;;;;;5033817;28;20180;-74
2022/06/01 12:54:38;;;;;;;2.23;1.10;;;22.20;52.20;;;;;;5034251;28;20164;-72
2022/06/01 12:57:07;;;;;;;1.73;1.10;;;22.20;52.20;;;;;;5034155;28;20175;-74
2022/06/01 12:59:40;;;;;;;1.60;1.10;;;22.20;52.30;;;;;;5051140;28;20214;-74
2022/06/01 13:02:12;;;;;;;2.33;1.20;;;22.20;52.30;;;;;;5033417;28;20550;-74
2022/06/01 13:04:49;;;;;;;1.47;1.10;;;22.20;52.30;;;;;;5034127;28;20200;-74
2022/06/01 13:07:17;;;;;;;1.30;1.00;;;22.20;52.40;;;;;;5034287;28;20165;-74
2022/06/01 13:09:43;;;;;;;2.20;1.20;;;22.20;52.50;;;;;;5033219;28;20169;-74
2022/06/01 13:12:18;;;;;;;1.43;1.30;;;22.20;52.50;;;;;;5032350;28;20558;-74
2022/06/01 13:14:45;;;;;;;1.20;1.10;;;22.20;52.60;;;;;;5031108;28;20345;-75
2022/06/01 13:17:18;;;;;;;1.80;1.20;;;22.20;52.70;;;;;;5034249;28;20256;-75
2022/06/01 13:20:00;;;;;;;1.73;1.20;;;22.10;52.70;;;;;;5033401;28;20176;-75
2022/06/01 13:22:38;;;;;;;1.47;1.07;;;22.10;52.80;;;;;;5032497;28;20212;-75
2022/06/01 13:25:13;;;;;;;2.57;1.10;;;22.10;52.90;;;;;;5032657;28;20374;-75
2022/06/01 13:27:40;;;;;;;1.20;1.10;;;22.10;52.90;;;;;;5051283;28;20255;-75
2022/06/01 13:30:07;;;;;;;2.17;1.20;;;22.10;52.90;;;;;;5050548;28;20172;-75
2022/06/01 13:32:40;;;;;;;1.87;1.23;;;22.10;53.00;;;;;;5033032;28;20521;-75
2022/06/01 13:35:30;;;;;;;1.43;1.10;;;22.10;53.10;;;;;;5033176;28;20245;-75
2022/06/01 13:37:57;;;;;;;1.83;1.07;;;22.10;53.10;;;;;;5038229;28;20172;-75
2022/06/01 13:40:30;;;;;;;2.20;1.40;;;22.00;53.10;;;;;;5040077;28;20188;-75
2022/06/01 13:43:02;;;;;;;2.67;1.47;;;22.00;53.20;;;;;;5034386;28;20168;-75
2022/06/01 13:46:02;;;;;;;2.20;1.60;;;22.00;53.30;;;;;;5034133;28;20230;-76
2022/06/01 13:48:40;;;;;;;2.83;1.40;;;22.00;53.40;;;;;;5027357;28;20577;-75
2022/06/01 13:51:15;;;;;;;2.43;1.30;;;22.00;53.50;;;;;;5033436;28;20484;-76
2022/06/01 13:53:44;;;;;;;2.20;1.70;;;21.90;53.50;;;;;;5032114;28;20361;-77
2022/06/01 13:56:15;;;;;;;1.70;1.60;;;22.00;53.60;;;;;;5031442;28;20333;-76
2022/06/01 13:58:58;;;;;;;1.70;1.60;;;21.90;53.60;;;;;;5023325;28;20452;-75
2022/06/01 14:01:44;;;;;;;2.70;1.70;;;21.90;53.70;;;;;;5032071;28;20883;-75
2022/06/01 14:04:24;;;;;;;2.70;1.60;;;21.90;53.80;;;;;;5032930;28;20290;-75
2022/06/01 14:06:53;;;;;;;2.30;1.73;;;21.90;53.80;;;;;;5029056;28;20305;-75
2022/06/01 14:09:23;;;;;;;4.00;1.73;;;21.90;53.90;;;;;;5037004;28;20514;-76
2022/06/01 14:11:49;;;;;;;3.17;1.60;;;21.90;54.00;;;;;;5026859;28;20288;-75
2022/06/01 14:14:37;;;;;;;2.13;1.50;;;21.90;54.00;;;;;;5018231;28;20188;-76
2022/06/01 14:17:06;;;;;;;3.83;1.73;;;21.80;54.00;;;;;;5023374;28;20172;-75
2022/06/01 14:19:32;;;;;;;3.73;1.60;;;21.80;54.10;;;;;;5033745;28;20180;-75